sensor_id;sensor_type;location;lat;lon;timestamp;P1;durP1;ratioP1;P2;durP2;ratioP2
59300;SDS011;45073;52.740;6.784;2023-03-02T00:04:14;32.08;;;17.25;;
59300;SDS011;45073;52.740;6.784;2023-03-02T00:06:48;30.33;;;17.35;;
59300;SDS011;45073;52.740;6.784;2023-03-02T00:09:19;32.10;;;16.90;;
59300;SDS011;45073;52.740;6.784;2023-03-02T00:11:44;30.00;;;15.98;;
59300;SDS011;45073;52.740;6.784;2023-03-02T00:14:10;30.92;;;16.75;;
59300;SDS011;45073;52.740;6.784;2023-03-02T00:16:36;32.55;;;17.40;;
59300;SDS011;45073;52.740;6.784;2023-03-02T00:19:01;30.58;;;16.35;;
59300;SDS011;45073;52.740;6.784;2023-03-02T00:21:27;30.48;;;16.98;;
59300;SDS011;45073;52.740;6.784;2023-03-02T00:23:53;31.17;;;17.77;;
59300;SDS011;45073;52.740;6.784;2023-03-02T00:26:18;30.23;;;16.58;;
59300;SDS011;45073;52.740;6.784;2023-03-02T00:28:44;32.95;;;17.52;;
59300;SDS011;45073;52.740;6.784;2023-03-02T00:31:10;30.02;;;15.95;;
59300;SDS011;45073;52.740;6.784;2023-03-02T00:33:35;34.85;;;17.63;;
59300;SDS011;45073;52.740;6.784;2023-03-02T00:36:01;34.40;;;17.60;;
59300;SDS011;45073;52.740;6.784;2023-03-02T00:38:27;34.92;;;18.20;;
59300;SDS011;45073;52.740;6.784;2023-03-02T00:40:53;33.78;;;16.88;;
59300;SDS011;45073;52.740;6.784;2023-03-02T00:43:20;35.85;;;19.83;;
59300;SDS011;45073;52.740;6.784;2023-03-02T00:45:51;33.40;;;18.48;;
59300;SDS011;45073;52.740;6.784;2023-03-02T00:48:17;33.45;;;19.70;;
59300;SDS011;45073;52.740;6.784;2023-03-02T00:50:43;33.35;;;18.73;;
59300;SDS011;45073;52.740;6.784;2023-03-02T00:53:09;33.55;;;18.00;;
59300;SDS011;45073;52.740;6.784;2023-03-02T00:55:35;34.97;;;18.30;;
59300;SDS011;45073;52.740;6.784;2023-03-02T00:58:01;33.60;;;18.65;;
59300;SDS011;45073;52.740;6.784;2023-03-02T01:00:27;36.85;;;19.52;;
59300;SDS011;45073;52.740;6.784;2023-03-02T01:02:53;38.28;;;20.92;;
59300;SDS011;45073;52.740;6.784;2023-03-02T01:05:20;33.97;;;19.90;;
59300;SDS011;45073;52.740;6.784;2023-03-02T01:07:45;37.80;;;20.27;;
59300;SDS011;45073;52.740;6.784;2023-03-02T01:10:11;40.40;;;21.60;;
59300;SDS011;45073;52.740;6.784;2023-03-02T01:12:37;36.28;;;19.75;;
59300;SDS011;45073;52.740;6.784;2023-03-02T01:15:03;37.03;;;20.48;;
59300;SDS011;45073;52.740;6.784;2023-03-02T01:17:29;40.78;;;20.55;;
59300;SDS011;45073;52.740;6.784;2023-03-02T01:19:54;36.88;;;20.10;;
59300;SDS011;45073;52.740;6.784;2023-03-02T01:22:21;32.58;;;19.08;;
59300;SDS011;45073;52.740;6.784;2023-03-02T01:24:47;36.05;;;18.58;;
59300;SDS011;45073;52.740;6.784;2023-03-02T01:27:13;40.60;;;21.40;;
59300;SDS011;45073;52.740;6.784;2023-03-02T01:29:39;37.00;;;21.05;;
59300;SDS011;45073;52.740;6.784;2023-03-02T01:32:05;32.70;;;18.83;;
59300;SDS011;45073;52.740;6.784;2023-03-02T01:34:30;33.85;;;18.80;;
59300;SDS011;45073;52.740;6.784;2023-03-02T01:36:56;35.95;;;19.20;;
59300;SDS011;45073;52.740;6.784;2023-03-02T01:39:22;35.47;;;20.55;;
59300;SDS011;45073;52.740;6.784;2023-03-02T01:41:48;34.53;;;18.13;;
59300;SDS011;45073;52.740;6.784;2023-03-02T01:44:35;37.97;;;18.67;;
59300;SDS011;45073;52.740;6.784;2023-03-02T01:47:10;35.67;;;19.05;;
59300;SDS011;45073;52.740;6.784;2023-03-02T01:49:55;34.38;;;16.73;;
59300;SDS011;45073;52.740;6.784;2023-03-02T01:52:25;35.63;;;16.98;;
59300;SDS011;45073;52.740;6.784;2023-03-02T01:54:53;28.77;;;16.00;;
59300;SDS011;45073;52.740;6.784;2023-03-02T01:57:24;32.80;;;17.08;;
59300;SDS011;45073;52.740;6.784;2023-03-02T01:59:57;33.40;;;17.67;;
59300;SDS011;45073;52.740;6.784;2023-03-02T02:02:25;31.52;;;15.63;;
59300;SDS011;45073;52.740;6.784;2023-03-02T02:04:53;30.58;;;16.83;;
59300;SDS011;45073;52.740;6.784;2023-03-02T02:07:20;31.23;;;15.38;;
59300;SDS011;45073;52.740;6.784;2023-03-02T02:09:46;32.03;;;16.13;;
59300;SDS011;45073;52.740;6.784;2023-03-02T02:12:16;32.17;;;17.42;;
59300;SDS011;45073;52.740;6.784;2023-03-02T02:14:43;29.30;;;15.73;;
59300;SDS011;45073;52.740;6.784;2023-03-02T02:17:11;30.73;;;15.95;;
59300;SDS011;45073;52.740;6.784;2023-03-02T02:22:29;29.02;;;16.25;;
59300;SDS011;45073;52.740;6.784;2023-03-02T02:25:02;29.23;;;15.77;;
59300;SDS011;45073;52.740;6.784;2023-03-02T02:27:33;31.15;;;15.45;;
59300;SDS011;45073;52.740;6.784;2023-03-02T02:30:00;28.58;;;16.05;;
59300;SDS011;45073;52.740;6.784;2023-03-02T02:32:29;33.08;;;16.63;;
59300;SDS011;45073;52.740;6.784;2023-03-02T02:37:31;31.45;;;17.42;;
59300;SDS011;45073;52.740;6.784;2023-03-02T02:40:00;31.92;;;16.63;;
59300;SDS011;45073;52.740;6.784;2023-03-02T02:42:32;33.85;;;16.65;;
59300;SDS011;45073;52.740;6.784;2023-03-02T02:45:03;33.40;;;18.73;;
59300;SDS011;45073;52.740;6.784;2023-03-02T02:47:31;33.70;;;16.38;;
59300;SDS011;45073;52.740;6.784;2023-03-02T02:49:57;31.80;;;14.85;;
59300;SDS011;45073;52.740;6.784;2023-03-02T02:52:24;29.33;;;16.20;;
59300;SDS011;45073;52.740;6.784;2023-03-02T02:54:53;29.17;;;15.15;;
59300;SDS011;45073;52.740;6.784;2023-03-02T02:57:22;32.70;;;16.88;;
59300;SDS011;45073;52.740;6.784;2023-03-02T02:59:51;32.20;;;15.98;;
59300;SDS011;45073;52.740;6.784;2023-03-02T03:02:23;31.98;;;17.25;;
59300;SDS011;45073;52.740;6.784;2023-03-02T03:04:51;30.58;;;15.43;;
59300;SDS011;45073;52.740;6.784;2023-03-02T03:07:28;32.63;;;15.55;;
59300;SDS011;45073;52.740;6.784;2023-03-02T03:12:59;30.55;;;15.02;;
59300;SDS011;45073;52.740;6.784;2023-03-02T03:15:25;30.25;;;15.18;;
59300;SDS011;45073;52.740;6.784;2023-03-02T03:17:54;29.02;;;15.43;;
59300;SDS011;45073;52.740;6.784;2023-03-02T03:20:21;30.08;;;13.13;;
59300;SDS011;45073;52.740;6.784;2023-03-02T03:22:48;27.85;;;14.18;;
59300;SDS011;45073;52.740;6.784;2023-03-02T03:25:17;35.38;;;15.73;;
59300;SDS011;45073;52.740;6.784;2023-03-02T03:27:44;31.27;;;15.85;;
59300;SDS011;45073;52.740;6.784;2023-03-02T03:30:10;30.20;;;15.38;;
59300;SDS011;45073;52.740;6.784;2023-03-02T03:32:37;32.75;;;15.32;;
59300;SDS011;45073;52.740;6.784;2023-03-02T03:35:04;29.45;;;15.30;;
59300;SDS011;45073;52.740;6.784;2023-03-02T03:37:33;29.65;;;14.80;;
59300;SDS011;45073;52.740;6.784;2023-03-02T03:39:59;30.67;;;14.70;;
59300;SDS011;45073;52.740;6.784;2023-03-02T03:42:25;27.90;;;14.25;;
59300;SDS011;45073;52.740;6.784;2023-03-02T03:44:50;27.85;;;15.00;;
59300;SDS011;45073;52.740;6.784;2023-03-02T03:47:16;29.10;;;13.63;;
59300;SDS011;45073;52.740;6.784;2023-03-02T03:49:42;31.83;;;15.30;;
59300;SDS011;45073;52.740;6.784;2023-03-02T03:52:07;29.20;;;14.50;;
59300;SDS011;45073;52.740;6.784;2023-03-02T03:54:33;33.25;;;15.80;;
59300;SDS011;45073;52.740;6.784;2023-03-02T03:56:59;30.17;;;15.45;;
59300;SDS011;45073;52.740;6.784;2023-03-02T03:59:25;30.55;;;15.13;;
59300;SDS011;45073;52.740;6.784;2023-03-02T04:01:56;30.58;;;15.00;;
59300;SDS011;45073;52.740;6.784;2023-03-02T04:04:28;31.27;;;16.20;;
59300;SDS011;45073;52.740;6.784;2023-03-02T04:06:56;27.17;;;13.50;;
59300;SDS011;45073;52.740;6.784;2023-03-02T04:09:23;33.95;;;15.48;;
59300;SDS011;45073;52.740;6.784;2023-03-02T04:11:50;32.17;;;15.93;;
59300;SDS011;45073;52.740;6.784;2023-03-02T04:14:18;32.17;;;15.48;;
59300;SDS011;45073;52.740;6.784;2023-03-02T04:16:44;30.35;;;15.45;;
59300;SDS011;45073;52.740;6.784;2023-03-02T04:19:11;28.15;;;12.88;;
59300;SDS011;45073;52.740;6.784;2023-03-02T04:21:39;29.38;;;13.40;;
59300;SDS011;45073;52.740;6.784;2023-03-02T04:24:07;32.85;;;14.88;;
59300;SDS011;45073;52.740;6.784;2023-03-02T04:26:34;34.00;;;16.48;;
59300;SDS011;45073;52.740;6.784;2023-03-02T04:29:01;29.27;;;14.43;;
59300;SDS011;45073;52.740;6.784;2023-03-02T04:31:27;32.47;;;15.43;;
59300;SDS011;45073;52.740;6.784;2023-03-02T04:33:55;27.00;;;13.25;;
59300;SDS011;45073;52.740;6.784;2023-03-02T04:36:20;31.67;;;14.80;;
59300;SDS011;45073;52.740;6.784;2023-03-02T04:38:46;32.88;;;15.30;;
59300;SDS011;45073;52.740;6.784;2023-03-02T04:41:12;33.80;;;15.98;;
59300;SDS011;45073;52.740;6.784;2023-03-02T04:43:38;34.22;;;16.10;;
59300;SDS011;45073;52.740;6.784;2023-03-02T04:46:04;30.00;;;14.05;;
59300;SDS011;45073;52.740;6.784;2023-03-02T04:48:29;31.65;;;15.27;;
59300;SDS011;45073;52.740;6.784;2023-03-02T04:50:55;31.77;;;14.90;;
59300;SDS011;45073;52.740;6.784;2023-03-02T04:53:21;33.55;;;15.50;;
59300;SDS011;45073;52.740;6.784;2023-03-02T04:55:46;31.50;;;15.38;;
59300;SDS011;45073;52.740;6.784;2023-03-02T04:58:12;36.28;;;16.60;;
59300;SDS011;45073;52.740;6.784;2023-03-02T05:00:38;39.08;;;18.05;;
59300;SDS011;45073;52.740;6.784;2023-03-02T05:03:04;42.45;;;15.63;;
59300;SDS011;45073;52.740;6.784;2023-03-02T05:05:30;40.03;;;16.50;;
59300;SDS011;45073;52.740;6.784;2023-03-02T05:07:56;40.08;;;17.75;;
59300;SDS011;45073;52.740;6.784;2023-03-02T05:10:25;37.88;;;15.63;;
59300;SDS011;45073;52.740;6.784;2023-03-02T05:12:51;38.72;;;17.75;;
59300;SDS011;45073;52.740;6.784;2023-03-02T05:15:38;34.83;;;15.40;;
59300;SDS011;45073;52.740;6.784;2023-03-02T05:18:05;36.83;;;17.17;;
59300;SDS011;45073;52.740;6.784;2023-03-02T05:20:32;34.25;;;15.15;;
59300;SDS011;45073;52.740;6.784;2023-03-02T05:23:00;36.80;;;16.98;;
59300;SDS011;45073;52.740;6.784;2023-03-02T05:25:27;35.67;;;17.25;;
59300;SDS011;45073;52.740;6.784;2023-03-02T05:27:55;34.75;;;15.70;;
59300;SDS011;45073;52.740;6.784;2023-03-02T05:30:21;33.60;;;16.20;;
59300;SDS011;45073;52.740;6.784;2023-03-02T05:32:47;38.65;;;17.95;;
59300;SDS011;45073;52.740;6.784;2023-03-02T05:35:13;39.10;;;17.27;;
59300;SDS011;45073;52.740;6.784;2023-03-02T05:37:39;38.25;;;17.60;;
59300;SDS011;45073;52.740;6.784;2023-03-02T05:40:07;35.53;;;16.73;;
59300;SDS011;45073;52.740;6.784;2023-03-02T05:42:33;38.08;;;15.75;;
59300;SDS011;45073;52.740;6.784;2023-03-02T05:45:00;40.10;;;17.15;;
59300;SDS011;45073;52.740;6.784;2023-03-02T05:47:28;37.65;;;17.45;;
59300;SDS011;45073;52.740;6.784;2023-03-02T05:49:53;42.97;;;18.25;;
59300;SDS011;45073;52.740;6.784;2023-03-02T05:52:19;40.95;;;17.60;;
59300;SDS011;45073;52.740;6.784;2023-03-02T05:54:45;35.30;;;17.02;;
59300;SDS011;45073;52.740;6.784;2023-03-02T05:57:10;39.88;;;17.23;;
59300;SDS011;45073;52.740;6.784;2023-03-02T05:59:36;40.78;;;17.60;;
59300;SDS011;45073;52.740;6.784;2023-03-02T06:02:02;42.20;;;17.73;;
59300;SDS011;45073;52.740;6.784;2023-03-02T06:04:28;40.65;;;19.15;;
59300;SDS011;45073;52.740;6.784;2023-03-02T06:06:54;48.25;;;18.08;;
59300;SDS011;45073;52.740;6.784;2023-03-02T06:09:19;37.15;;;15.50;;
59300;SDS011;45073;52.740;6.784;2023-03-02T06:11:46;40.55;;;17.10;;
59300;SDS011;45073;52.740;6.784;2023-03-02T06:14:12;45.30;;;18.02;;
59300;SDS011;45073;52.740;6.784;2023-03-02T06:16:38;47.03;;;17.50;;
59300;SDS011;45073;52.740;6.784;2023-03-02T06:19:03;45.53;;;18.10;;
59300;SDS011;45073;52.740;6.784;2023-03-02T06:21:29;37.70;;;17.42;;
59300;SDS011;45073;52.740;6.784;2023-03-02T06:23:54;41.38;;;19.80;;
59300;SDS011;45073;52.740;6.784;2023-03-02T06:26:20;42.33;;;18.15;;
59300;SDS011;45073;52.740;6.784;2023-03-02T06:28:46;43.22;;;18.55;;
59300;SDS011;45073;52.740;6.784;2023-03-02T06:31:11;37.15;;;17.40;;
59300;SDS011;45073;52.740;6.784;2023-03-02T06:33:37;44.70;;;19.98;;
59300;SDS011;45073;52.740;6.784;2023-03-02T06:36:03;47.15;;;19.38;;
59300;SDS011;45073;52.740;6.784;2023-03-02T06:38:28;40.30;;;18.75;;
59300;SDS011;45073;52.740;6.784;2023-03-02T06:40:54;42.72;;;18.08;;
59300;SDS011;45073;52.740;6.784;2023-03-02T06:43:19;37.33;;;16.65;;
59300;SDS011;45073;52.740;6.784;2023-03-02T06:45:45;38.35;;;16.50;;
59300;SDS011;45073;52.740;6.784;2023-03-02T06:48:11;37.67;;;16.77;;
59300;SDS011;45073;52.740;6.784;2023-03-02T06:50:36;37.72;;;17.00;;
59300;SDS011;45073;52.740;6.784;2023-03-02T06:53:02;34.83;;;16.60;;
59300;SDS011;45073;52.740;6.784;2023-03-02T06:55:28;33.05;;;16.50;;
59300;SDS011;45073;52.740;6.784;2023-03-02T06:57:53;35.42;;;15.93;;
59300;SDS011;45073;52.740;6.784;2023-03-02T07:00:19;37.38;;;16.25;;
59300;SDS011;45073;52.740;6.784;2023-03-02T07:02:52;39.08;;;15.75;;
59300;SDS011;45073;52.740;6.784;2023-03-02T07:05:19;35.10;;;14.90;;
59300;SDS011;45073;52.740;6.784;2023-03-02T07:07:46;36.03;;;15.32;;
59300;SDS011;45073;52.740;6.784;2023-03-02T07:10:12;35.50;;;15.60;;
59300;SDS011;45073;52.740;6.784;2023-03-02T07:12:38;34.95;;;15.48;;
59300;SDS011;45073;52.740;6.784;2023-03-02T07:15:05;37.13;;;17.55;;
59300;SDS011;45073;52.740;6.784;2023-03-02T07:17:36;34.88;;;16.30;;
59300;SDS011;45073;52.740;6.784;2023-03-02T07:20:03;33.72;;;15.57;;
59300;SDS011;45073;52.740;6.784;2023-03-02T07:22:30;39.40;;;15.60;;
59300;SDS011;45073;52.740;6.784;2023-03-02T07:24:56;36.95;;;17.52;;
59300;SDS011;45073;52.740;6.784;2023-03-02T07:27:22;33.80;;;15.63;;
59300;SDS011;45073;52.740;6.784;2023-03-02T07:29:47;41.00;;;17.13;;
59300;SDS011;45073;52.740;6.784;2023-03-02T07:32:13;34.38;;;16.02;;
59300;SDS011;45073;52.740;6.784;2023-03-02T07:34:38;34.38;;;16.73;;
59300;SDS011;45073;52.740;6.784;2023-03-02T07:37:04;30.25;;;15.68;;
59300;SDS011;45073;52.740;6.784;2023-03-02T07:39:30;31.80;;;14.95;;
59300;SDS011;45073;52.740;6.784;2023-03-02T07:41:57;31.05;;;14.73;;
59300;SDS011;45073;52.740;6.784;2023-03-02T07:44:24;34.58;;;16.23;;
59300;SDS011;45073;52.740;6.784;2023-03-02T07:46:50;33.22;;;16.35;;
59300;SDS011;45073;52.740;6.784;2023-03-02T07:49:15;29.67;;;15.73;;
59300;SDS011;45073;52.740;6.784;2023-03-02T07:51:41;30.35;;;14.20;;
59300;SDS011;45073;52.740;6.784;2023-03-02T07:54:07;34.38;;;16.38;;
59300;SDS011;45073;52.740;6.784;2023-03-02T07:56:32;31.90;;;15.90;;
59300;SDS011;45073;52.740;6.784;2023-03-02T07:58:58;34.38;;;14.98;;
59300;SDS011;45073;52.740;6.784;2023-03-02T08:01:24;32.17;;;14.85;;
59300;SDS011;45073;52.740;6.784;2023-03-02T08:03:49;40.15;;;15.02;;
59300;SDS011;45073;52.740;6.784;2023-03-02T08:06:15;33.28;;;16.92;;
59300;SDS011;45073;52.740;6.784;2023-03-02T08:08:41;32.03;;;16.73;;
59300;SDS011;45073;52.740;6.784;2023-03-02T08:11:07;30.38;;;15.93;;
59300;SDS011;45073;52.740;6.784;2023-03-02T08:13:35;32.88;;;15.55;;
59300;SDS011;45073;52.740;6.784;2023-03-02T08:16:02;32.85;;;16.60;;
59300;SDS011;45073;52.740;6.784;2023-03-02T08:18:29;33.60;;;15.65;;
59300;SDS011;45073;52.740;6.784;2023-03-02T08:20:55;33.92;;;15.77;;
59300;SDS011;45073;52.740;6.784;2023-03-02T08:23:22;29.20;;;14.52;;
59300;SDS011;45073;52.740;6.784;2023-03-02T08:25:48;30.30;;;14.23;;
59300;SDS011;45073;52.740;6.784;2023-03-02T08:28:14;34.55;;;15.55;;
59300;SDS011;45073;52.740;6.784;2023-03-02T08:30:39;31.33;;;16.15;;
59300;SDS011;45073;52.740;6.784;2023-03-02T08:33:05;33.35;;;15.73;;
59300;SDS011;45073;52.740;6.784;2023-03-02T08:35:31;29.85;;;15.05;;
59300;SDS011;45073;52.740;6.784;2023-03-02T08:37:56;28.85;;;13.80;;
59300;SDS011;45073;52.740;6.784;2023-03-02T08:40:23;30.40;;;14.70;;
59300;SDS011;45073;52.740;6.784;2023-03-02T08:42:50;26.55;;;13.02;;
59300;SDS011;45073;52.740;6.784;2023-03-02T08:45:24;26.67;;;13.20;;
59300;SDS011;45073;52.740;6.784;2023-03-02T08:47:51;25.50;;;14.27;;
59300;SDS011;45073;52.740;6.784;2023-03-02T08:50:18;25.67;;;13.80;;
59300;SDS011;45073;52.740;6.784;2023-03-02T08:52:44;26.00;;;13.35;;
59300;SDS011;45073;52.740;6.784;2023-03-02T08:55:10;25.70;;;14.20;;
59300;SDS011;45073;52.740;6.784;2023-03-02T08:57:35;25.67;;;13.32;;
59300;SDS011;45073;52.740;6.784;2023-03-02T09:00:02;29.13;;;14.07;;
59300;SDS011;45073;52.740;6.784;2023-03-02T09:02:32;28.33;;;14.88;;
59300;SDS011;45073;52.740;6.784;2023-03-02T09:04:58;28.02;;;14.05;;
59300;SDS011;45073;52.740;6.784;2023-03-02T09:07:23;29.67;;;14.45;;
59300;SDS011;45073;52.740;6.784;2023-03-02T09:09:49;28.80;;;13.50;;
59300;SDS011;45073;52.740;6.784;2023-03-02T09:12:15;27.95;;;14.50;;
59300;SDS011;45073;52.740;6.784;2023-03-02T09:14:40;30.48;;;15.07;;
59300;SDS011;45073;52.740;6.784;2023-03-02T09:17:06;27.60;;;13.73;;
59300;SDS011;45073;52.740;6.784;2023-03-02T09:19:32;25.60;;;13.30;;
59300;SDS011;45073;52.740;6.784;2023-03-02T09:22:05;26.83;;;13.65;;
59300;SDS011;45073;52.740;6.784;2023-03-02T09:24:32;28.13;;;14.85;;
59300;SDS011;45073;52.740;6.784;2023-03-02T09:26:58;23.73;;;13.80;;
59300;SDS011;45073;52.740;6.784;2023-03-02T09:29:23;28.00;;;14.35;;
59300;SDS011;45073;52.740;6.784;2023-03-02T09:31:49;26.98;;;13.18;;
59300;SDS011;45073;52.740;6.784;2023-03-02T09:34:15;28.70;;;15.00;;
59300;SDS011;45073;52.740;6.784;2023-03-02T09:36:40;27.70;;;14.38;;
59300;SDS011;45073;52.740;6.784;2023-03-02T09:39:06;24.75;;;12.95;;
59300;SDS011;45073;52.740;6.784;2023-03-02T09:44:41;25.08;;;13.68;;
59300;SDS011;45073;52.740;6.784;2023-03-02T09:50:32;24.73;;;12.88;;
59300;SDS011;45073;52.740;6.784;2023-03-02T09:55:50;26.83;;;13.80;;
59300;SDS011;45073;52.740;6.784;2023-03-02T09:58:24;27.23;;;13.27;;
59300;SDS011;45073;52.740;6.784;2023-03-02T10:00:55;25.50;;;13.00;;
59300;SDS011;45073;52.740;6.784;2023-03-02T10:03:36;26.67;;;13.93;;
59300;SDS011;45073;52.740;6.784;2023-03-02T10:06:05;25.15;;;12.73;;
59300;SDS011;45073;52.740;6.784;2023-03-02T10:08:33;23.67;;;12.45;;
59300;SDS011;45073;52.740;6.784;2023-03-02T10:13:48;22.80;;;12.63;;
59300;SDS011;45073;52.740;6.784;2023-03-02T10:21:39;25.90;;;14.02;;
59300;SDS011;45073;52.740;6.784;2023-03-02T10:31:47;22.35;;;12.75;;
59300;SDS011;45073;52.740;6.784;2023-03-02T10:34:19;21.85;;;12.32;;
59300;SDS011;45073;52.740;6.784;2023-03-02T10:36:48;23.95;;;12.27;;
59300;SDS011;45073;52.740;6.784;2023-03-02T10:39:14;24.08;;;12.10;;
59300;SDS011;45073;52.740;6.784;2023-03-02T10:41:45;23.67;;;13.00;;
59300;SDS011;45073;52.740;6.784;2023-03-02T10:45:01;25.02;;;13.65;;
59300;SDS011;45073;52.740;6.784;2023-03-02T10:47:18;24.15;;;13.07;;
59300;SDS011;45073;52.740;6.784;2023-03-02T10:49:49;24.33;;;12.63;;
59300;SDS011;45073;52.740;6.784;2023-03-02T10:52:17;22.83;;;11.85;;
59300;SDS011;45073;52.740;6.784;2023-03-02T10:54:45;22.52;;;12.02;;
59300;SDS011;45073;52.740;6.784;2023-03-02T10:59:56;22.85;;;12.27;;
59300;SDS011;45073;52.740;6.784;2023-03-02T11:02:25;21.90;;;12.48;;
59300;SDS011;45073;52.740;6.784;2023-03-02T11:05:12;23.55;;;11.65;;
59300;SDS011;45073;52.740;6.784;2023-03-02T11:10:24;21.67;;;11.38;;
59300;SDS011;45073;52.740;6.784;2023-03-02T11:12:59;23.80;;;13.05;;
59300;SDS011;45073;52.740;6.784;2023-03-02T11:15:27;22.85;;;11.88;;
59300;SDS011;45073;52.740;6.784;2023-03-02T11:20:33;21.58;;;12.05;;
59300;SDS011;45073;52.740;6.784;2023-03-02T11:23:19;22.67;;;13.07;;
59300;SDS011;45073;52.740;6.784;2023-03-02T11:26:00;21.88;;;12.82;;
59300;SDS011;45073;52.740;6.784;2023-03-02T11:28:37;22.85;;;12.15;;
59300;SDS011;45073;52.740;6.784;2023-03-02T11:31:14;22.60;;;12.38;;
59300;SDS011;45073;52.740;6.784;2023-03-02T11:33:57;23.17;;;13.32;;
59300;SDS011;45073;52.740;6.784;2023-03-02T11:36:27;21.52;;;12.05;;
59300;SDS011;45073;52.740;6.784;2023-03-02T11:39:03;21.52;;;11.15;;
59300;SDS011;45073;52.740;6.784;2023-03-02T11:41:36;25.10;;;14.50;;
59300;SDS011;45073;52.740;6.784;2023-03-02T11:44:13;24.77;;;13.45;;
59300;SDS011;45073;52.740;6.784;2023-03-02T11:46:44;26.23;;;15.25;;
59300;SDS011;45073;52.740;6.784;2023-03-02T11:50:00;25.17;;;14.48;;
59300;SDS011;45073;52.740;6.784;2023-03-02T11:52:13;25.48;;;13.77;;
59300;SDS011;45073;52.740;6.784;2023-03-02T11:54:48;26.42;;;15.05;;
59300;SDS011;45073;52.740;6.784;2023-03-02T11:57:23;24.45;;;14.02;;
59300;SDS011;45073;52.740;6.784;2023-03-02T11:59:53;22.88;;;12.85;;
59300;SDS011;45073;52.740;6.784;2023-03-02T12:02:20;27.20;;;14.48;;
59300;SDS011;45073;52.740;6.784;2023-03-02T12:04:46;25.48;;;14.32;;
59300;SDS011;45073;52.740;6.784;2023-03-02T12:07:17;27.80;;;14.13;;
59300;SDS011;45073;52.740;6.784;2023-03-02T12:10:23;25.67;;;13.88;;
59300;SDS011;45073;52.740;6.784;2023-03-02T12:16:19;23.10;;;12.30;;
59300;SDS011;45073;52.740;6.784;2023-03-02T12:18:47;25.25;;;13.98;;
59300;SDS011;45073;52.740;6.784;2023-03-02T12:21:18;22.55;;;13.60;;
59300;SDS011;45073;52.740;6.784;2023-03-02T12:28:54;19.75;;;12.27;;
59300;SDS011;45073;52.740;6.784;2023-03-02T12:31:41;24.25;;;13.32;;
59300;SDS011;45073;52.740;6.784;2023-03-02T12:36:48;22.70;;;13.05;;
59300;SDS011;45073;52.740;6.784;2023-03-02T12:47:38;23.70;;;14.65;;
59300;SDS011;45073;52.740;6.784;2023-03-02T12:50:21;25.95;;;15.05;;
59300;SDS011;45073;52.740;6.784;2023-03-02T12:52:57;22.92;;;14.02;;
59300;SDS011;45073;52.740;6.784;2023-03-02T12:55:24;24.10;;;13.63;;
59300;SDS011;45073;52.740;6.784;2023-03-02T12:57:53;21.73;;;13.23;;
59300;SDS011;45073;52.740;6.784;2023-03-02T13:00:24;23.98;;;13.80;;
59300;SDS011;45073;52.740;6.784;2023-03-02T13:02:52;25.55;;;14.85;;
59300;SDS011;45073;52.740;6.784;2023-03-02T13:05:23;23.88;;;15.13;;
59300;SDS011;45073;52.740;6.784;2023-03-02T13:08:04;25.58;;;14.98;;
59300;SDS011;45073;52.740;6.784;2023-03-02T13:10:39;24.55;;;15.18;;
59300;SDS011;45073;52.740;6.784;2023-03-02T13:13:17;22.88;;;14.77;;
59300;SDS011;45073;52.740;6.784;2023-03-02T13:15:54;23.10;;;13.68;;
59300;SDS011;45073;52.740;6.784;2023-03-02T13:18:22;23.23;;;13.85;;
59300;SDS011;45073;52.740;6.784;2023-03-02T13:20:49;25.58;;;13.55;;
59300;SDS011;45073;52.740;6.784;2023-03-02T13:23:16;22.50;;;13.65;;
59300;SDS011;45073;52.740;6.784;2023-03-02T13:25:50;23.95;;;13.88;;
59300;SDS011;45073;52.740;6.784;2023-03-02T13:28:23;22.20;;;13.25;;
59300;SDS011;45073;52.740;6.784;2023-03-02T13:30:58;22.83;;;13.98;;
59300;SDS011;45073;52.740;6.784;2023-03-02T13:33:29;22.48;;;12.40;;
59300;SDS011;45073;52.740;6.784;2023-03-02T13:35:57;22.02;;;12.63;;
59300;SDS011;45073;52.740;6.784;2023-03-02T13:38:30;22.67;;;12.95;;
59300;SDS011;45073;52.740;6.784;2023-03-02T13:40:59;22.08;;;13.20;;
59300;SDS011;45073;52.740;6.784;2023-03-02T13:46:02;22.65;;;12.98;;
59300;SDS011;45073;52.740;6.784;2023-03-02T13:48:30;23.23;;;13.63;;
59300;SDS011;45073;52.740;6.784;2023-03-02T13:50:57;22.02;;;12.57;;
59300;SDS011;45073;52.740;6.784;2023-03-02T13:53:26;22.05;;;13.38;;
59300;SDS011;45073;52.740;6.784;2023-03-02T13:55:54;20.25;;;12.00;;
59300;SDS011;45073;52.740;6.784;2023-03-02T13:58:20;21.65;;;12.48;;
59300;SDS011;45073;52.740;6.784;2023-03-02T14:00:48;21.90;;;12.32;;
59300;SDS011;45073;52.740;6.784;2023-03-02T14:03:25;22.10;;;12.05;;
59300;SDS011;45073;52.740;6.784;2023-03-02T14:05:53;19.88;;;11.85;;
59300;SDS011;45073;52.740;6.784;2023-03-02T14:08:19;22.00;;;12.07;;
59300;SDS011;45073;52.740;6.784;2023-03-02T14:10:45;22.70;;;11.93;;
59300;SDS011;45073;52.740;6.784;2023-03-02T14:13:13;21.67;;;12.52;;
59300;SDS011;45073;52.740;6.784;2023-03-02T14:15:49;21.95;;;12.20;;
59300;SDS011;45073;52.740;6.784;2023-03-02T14:18:25;18.17;;;10.52;;
59300;SDS011;45073;52.740;6.784;2023-03-02T14:20:55;20.65;;;11.50;;
59300;SDS011;45073;52.740;6.784;2023-03-02T14:23:22;20.98;;;12.32;;
59300;SDS011;45073;52.740;6.784;2023-03-02T14:25:49;19.42;;;10.82;;
59300;SDS011;45073;52.740;6.784;2023-03-02T14:28:17;18.77;;;11.65;;
59300;SDS011;45073;52.740;6.784;2023-03-02T14:30:50;19.13;;;11.68;;
59300;SDS011;45073;52.740;6.784;2023-03-02T14:33:18;19.25;;;11.48;;
59300;SDS011;45073;52.740;6.784;2023-03-02T14:35:46;20.75;;;11.63;;
59300;SDS011;45073;52.740;6.784;2023-03-02T14:38:13;20.30;;;12.00;;
59300;SDS011;45073;52.740;6.784;2023-03-02T14:40:39;19.75;;;11.57;;
59300;SDS011;45073;52.740;6.784;2023-03-02T14:43:04;21.15;;;11.52;;
59300;SDS011;45073;52.740;6.784;2023-03-02T14:45:30;19.42;;;11.07;;
59300;SDS011;45073;52.740;6.784;2023-03-02T14:47:56;20.25;;;11.23;;
59300;SDS011;45073;52.740;6.784;2023-03-02T14:50:21;19.50;;;10.45;;
59300;SDS011;45073;52.740;6.784;2023-03-02T14:52:52;21.00;;;10.30;;
59300;SDS011;45073;52.740;6.784;2023-03-02T14:55:27;17.27;;;10.30;;
59300;SDS011;45073;52.740;6.784;2023-03-02T14:57:55;18.27;;;10.95;;
59300;SDS011;45073;52.740;6.784;2023-03-02T15:00:22;18.20;;;11.32;;
59300;SDS011;45073;52.740;6.784;2023-03-02T15:02:48;17.17;;;11.75;;
59300;SDS011;45073;52.740;6.784;2023-03-02T15:05:14;17.85;;;11.52;;
59300;SDS011;45073;52.740;6.784;2023-03-02T15:07:40;16.75;;;14.95;;
59300;SDS011;45073;52.740;6.784;2023-03-02T15:10:06;16.65;;;14.70;;
59300;SDS011;45073;52.740;6.784;2023-03-02T15:12:36;15.98;;;13.95;;
59300;SDS011;45073;52.740;6.784;2023-03-02T15:15:02;14.73;;;12.65;;
59300;SDS011;45073;52.740;6.784;2023-03-02T15:17:28;15.68;;;13.48;;
59300;SDS011;45073;52.740;6.784;2023-03-02T15:19:54;14.32;;;12.13;;
59300;SDS011;45073;52.740;6.784;2023-03-02T15:22:19;13.32;;;11.93;;
59300;SDS011;45073;52.740;6.784;2023-03-02T15:24:45;13.55;;;11.75;;
59300;SDS011;45073;52.740;6.784;2023-03-02T15:27:10;13.13;;;11.52;;
59300;SDS011;45073;52.740;6.784;2023-03-02T15:29:36;13.80;;;11.68;;
59300;SDS011;45073;52.740;6.784;2023-03-02T15:32:02;13.50;;;11.43;;
59300;SDS011;45073;52.740;6.784;2023-03-02T15:34:27;13.20;;;11.77;;